»·PEaware :: N17MA KBUR-KLAS

N17MA :: KBUR-KLAS

FLIGHT INFORMATION

Flight Status: Arrived
Operator: Privately registered:
United States
More flights under this callsign
Pilot: Diego M. (28112)
Aircraft: BEECH AIRCRAFT BARON
(BE58)
More flights by this aircraft type
Origin: KBUR Bob Hope-Burbank
United States
Destination: KLAS McCarran Intl
United States
More flights between these airports :: More routes between these airports
Route: +VNY3 DAG CRESO4
File this flight plan on PilotEdge
Remarks:
Altitude:
(Current/Filed)
13,000ft
Speed:
(Current/Filed)
150kts
Departed: 13-May-20 09:06 AM
Arrived: 13-May-20 11:08 AM
Distance/Time
Traveled:
193nm/2:02
Distance/Time
To Go:
Arrived

Flight Plot

Page will automatically refresh every two minutes.

Flight plan parsing failed; only flown route is shown


Map Options




Map Legend


Flown Route
Filed Route
Departure Airport
Arrival Airport
Navaid (VOR, NDB)
Fix

Horizontal Profiles

Position Reports

Time Latitude Longitude Heading Altitude Ground
Speed
13-May-20 08:49 34.196338 -118.367565 358 723ft 0kts
13-May-20 08:50 34.196338 -118.367565 358 723ft 0kts
13-May-20 08:51 34.196338 -118.367565 358 723ft 0kts
13-May-20 08:52 34.196338 -118.367565 358 723ft 0kts
13-May-20 08:53 34.196338 -118.367565 358 723ft 0kts
13-May-20 08:54 34.196338 -118.367565 358 723ft 0kts
13-May-20 08:55 34.196338 -118.367565 358 723ft 0kts
13-May-20 08:56 34.196338 -118.367565 358 723ft 0kts
13-May-20 08:57 34.196338 -118.367565 358 723ft 0kts
13-May-20 08:58 34.196338 -118.367565 358 723ft 0kts
13-May-20 08:59 34.196338 -118.367565 358 723ft 0kts
13-May-20 09:00 34.196475 -118.367130 91 723ft 10kts
13-May-20 09:01 34.197149 -118.368967 335 727ft 0kts
13-May-20 09:02 34.197149 -118.368967 335 727ft 0kts
13-May-20 09:03 34.197149 -118.368967 335 727ft 0kts
13-May-20 09:04 34.197149 -118.368967 335 727ft 0kts
13-May-20 09:05 34.197795 -118.362177 92 719ft 86kts
13-May-20 09:06 34.190707 -118.328693 162 1664ft 120kts
13-May-20 09:07 34.165608 -118.353862 259 2896ft 137kts
13-May-20 09:08 34.184751 -118.396998 297 2280ft 148kts
13-May-20 09:10 34.202438 -118.438574 295 2333ft 134kts
13-May-20 09:11 34.218493 -118.479966 291 3618ft 142kts
13-May-20 09:12 34.254754 -118.496707 349 4790ft 149kts
13-May-20 09:13 34.295726 -118.502843 349 5899ft 148kts
13-May-20 09:14 34.335716 -118.499066 32 6967ft 149kts
13-May-20 09:15 34.370113 -118.470802 29 7960ft 149kts
13-May-20 09:16 34.398953 -118.434648 48 8940ft 151kts
13-May-20 09:17 34.424287 -118.394725 47 9901ft 148kts
13-May-20 09:18 34.449032 -118.355388 45 10823ft 145kts
13-May-20 09:19 34.473254 -118.316836 44 11690ft 142kts
13-May-20 09:20 34.497356 -118.278471 44 12405ft 144kts
13-May-20 09:21 34.521914 -118.239335 44 12971ft 153kts
13-May-20 09:22 34.550000 -118.194550 44 12950ft 172kts
13-May-20 09:23 34.579198 -118.147652 45 12925ft 174kts
13-May-20 09:24 34.608483 -118.100683 45 12930ft 175kts
13-May-20 09:25 34.632127 -118.049175 74 12975ft 180kts
13-May-20 09:26 34.639750 -117.987444 77 12932ft 184kts
13-May-20 09:26 34.645470 -117.935761 77 12939ft 186kts
13-May-20 09:27 34.652307 -117.873146 77 12934ft 194kts
13-May-20 09:34 34.196338 -118.367565 358 723ft 0kts
13-May-20 09:35 34.196338 -118.367565 358 723ft 0kts
13-May-20 09:36 34.196338 -118.367565 358 723ft 0kts
13-May-20 09:37 34.196338 -118.367565 358 723ft 0kts
13-May-20 09:38 34.196338 -118.367565 358 723ft 0kts
13-May-20 09:39 34.196338 -118.367565 358 723ft 0kts
13-May-20 09:40 34.196338 -118.367565 358 723ft 0kts
13-May-20 09:41 34.196338 -118.367565 358 723ft 0kts
13-May-20 09:42 34.196338 -118.367565 358 723ft 0kts
13-May-20 09:43 34.196586 -118.366726 15 723ft 9kts
13-May-20 09:44 34.197114 -118.368939 329 727ft 0kts
13-May-20 09:45 34.197128 -118.368949 329 727ft 1kts
13-May-20 09:46 34.197899 -118.349641 91 970ft 131kts
13-May-20 09:47 34.175036 -118.333697 222 2154ft 143kts
13-May-20 09:48 34.148111 -118.369113 225 3011ft 143kts
13-May-20 09:49 34.122119 -118.403562 225 3919ft 135kts
13-May-20 09:50 34.122339 -118.443852 348 4071ft 167kts
13-May-20 09:51 34.164150 -118.436551 359 5131ft 143kts
13-May-20 09:52 34.203958 -118.438458 351 6346ft 144kts
13-May-20 09:53 34.243586 -118.442887 348 7534ft 141kts
13-May-20 09:54 34.282121 -118.447676 347 8641ft 137kts
13-May-20 09:55 34.319396 -118.452402 346 9674ft 132kts
13-May-20 09:56 34.355452 -118.456992 346 10657ft 127kts
13-May-20 09:57 34.388495 -118.447345 38 11571ft 140kts
13-May-20 09:58 34.413879 -118.410566 43 12371ft 142kts
13-May-20 09:59 34.438474 -118.372225 44 12920ft 157kts
13-May-20 10:00 34.466998 -118.326941 45 12943ft 176kts
13-May-20 10:01 34.496729 -118.279468 45 12974ft 180kts
13-May-20 10:02 34.527223 -118.230754 45 12963ft 182kts
13-May-20 10:03 34.557836 -118.181807 45 12958ft 182kts
13-May-20 10:04 34.588375 -118.132910 45 12960ft 181kts
13-May-20 10:05 34.618933 -118.083895 45 12960ft 181kts
13-May-20 10:06 34.635374 -118.025006 76 12955ft 191kts
13-May-20 10:07 34.642712 -117.960860 77 12951ft 192kts
13-May-20 10:08 34.649775 -117.896372 77 12944ft 192kts
13-May-20 10:09 34.656768 -117.831988 77 12935ft 192kts
13-May-20 10:10 34.663858 -117.768067 72 12938ft 189kts
13-May-20 10:11 34.678669 -117.707305 67 12949ft 187kts
13-May-20 10:12 34.694130 -117.646892 67 12956ft 187kts
13-May-20 10:13 34.709622 -117.586361 67 12963ft 188kts
13-May-20 10:14 34.725186 -117.525441 67 12964ft 190kts
13-May-20 10:15 34.740820 -117.464062 67 12961ft 189kts
13-May-20 10:16 34.756404 -117.402760 67 12962ft 189kts
13-May-20 10:17 34.771922 -117.341578 67 12959ft 190kts
13-May-20 10:18 34.787463 -117.280158 67 12952ft 189kts
13-May-20 10:19 34.802881 -117.219089 67 12944ft 189kts
13-May-20 10:20 34.818301 -117.157843 67 12959ft 187kts
13-May-20 10:21 34.833481 -117.097518 68 12999ft 187kts
13-May-20 10:22 34.848813 -117.036474 70 12993ft 189kts
13-May-20 10:23 34.864106 -116.975296 71 12990ft 189kts
13-May-20 10:24 34.879328 -116.914231 72 12988ft 187kts
13-May-20 10:25 34.894336 -116.853831 73 12983ft 185kts
13-May-20 10:26 34.909209 -116.793876 72 12985ft 184kts
13-May-20 10:27 34.924032 -116.734031 72 12987ft 184kts
13-May-20 10:28 34.938855 -116.674054 72 12987ft 184kts
13-May-20 10:29 34.953596 -116.614267 72 12987ft 184kts
13-May-20 10:30 34.972458 -116.556253 60 12986ft 184kts
13-May-20 10:31 34.996691 -116.501344 59 12984ft 184kts
13-May-20 10:32 35.021020 -116.446527 59 12981ft 184kts
13-May-20 10:33 35.045426 -116.391493 59 12978ft 184kts
13-May-20 10:34 35.069801 -116.336463 60 12975ft 184kts
13-May-20 10:35 35.094005 -116.281723 60 12976ft 183kts
13-May-20 10:36 35.117460 -116.228585 60 12976ft 183kts
13-May-20 10:37 35.141632 -116.173738 60 12976ft 183kts
13-May-20 10:38 35.165760 -116.118904 60 12976ft 183kts
13-May-20 10:39 35.189919 -116.063909 60 12977ft 183kts
13-May-20 10:40 35.214052 -116.008847 60 12975ft 184kts
13-May-20 10:41 35.238168 -115.953781 60 12977ft 183kts
13-May-20 10:42 35.262225 -115.898752 60 12978ft 183kts
13-May-20 10:43 35.286559 -115.843006 60 12827ft 190kts
13-May-20 10:44 35.313547 -115.784398 48 12204ft 203kts
13-May-20 10:45 35.351102 -115.733296 45 11627ft 202kts
13-May-20 10:46 35.389159 -115.682523 45 11029ft 202kts
13-May-20 10:47 35.427122 -115.631827 45 10487ft 200kts
13-May-20 10:48 35.464188 -115.582251 45 10135ft 194kts
13-May-20 10:49 35.500020 -115.534260 45 10010ft 188kts
13-May-20 10:50 35.534999 -115.487342 45 10009ft 184kts
13-May-20 10:51 35.569727 -115.440785 45 9999ft 184kts
13-May-20 10:52 35.605082 -115.393258 45 9716ft 193kts
13-May-20 10:53 35.641763 -115.343866 46 9232ft 198kts
13-May-20 10:54 35.679126 -115.293496 46 8609ft 200kts
13-May-20 10:55 35.716196 -115.243453 46 7763ft 194kts
13-May-20 10:56 35.751897 -115.195186 46 7030ft 183kts
13-May-20 10:57 35.787786 -115.161274 12 7188ft 155kts
13-May-20 10:58 35.833780 -115.148082 11 7174ft 177kts
13-May-20 10:59 35.883358 -115.133947 11 6990ft 182kts
13-May-20 11:01 35.932161 -115.119924 11 7058ft 177kts
13-May-20 11:02 35.980820 -115.105771 11 7062ft 179kts
13-May-20 11:03 36.029507 -115.091404 11 7051ft 180kts
13-May-20 11:04 36.073430 -115.080012 358 6005ft 121kts
13-May-20 11:05 36.108955 -115.082212 345 4595ft 137kts
13-May-20 11:06 36.127810 -115.113820 279 3371ft 125kts
13-May-20 11:07 36.113882 -115.148240 204 2388ft 115kts
13-May-20 11:08 36.091836 -115.160946 203 2114ft 35kts
13-May-20 11:09 36.089401 -115.163485 292 2130ft 0kts
13-May-20 11:10 36.089401 -115.163485 292 2130ft 0kts
13-May-20 11:11 36.088583 -115.165187 208 2138ft 15kts
13-May-20 11:12 36.084530 -115.167499 206 2155ft 16kts
13-May-20 11:13 36.081458 -115.170352 268 2169ft 8kts
13-May-20 11:14 36.080776 -115.170977 197 2171ft 0kts
13-May-20 11:15 36.080776 -115.170977 197 2171ft 0kts
13-May-20 11:16 36.080776 -115.170977 197 2171ft 0kts
13-May-20 11:17 36.080776 -115.170977 197 2171ft 0kts
13-May-20 11:18 36.080776 -115.170977 197 2171ft 0kts
13-May-20 11:18 36.080776 -115.170977 197 2171ft 0kts
13-May-20 11:19 36.080776 -115.170977 197 2171ft 0kts

Navigation Log

Ident Type
Flight plan parsing failed, navigation log unavailable